createdAt,value
2019-03-09T00:01:14.885Z,44.90
2019-03-09T00:03:47.160Z,47.17
2019-03-09T00:06:18.980Z,54.90
2019-03-09T00:08:53.524Z,50.12
2019-03-09T00:11:25.465Z,52.10
2019-03-09T00:13:57.074Z,53.20
2019-03-09T00:16:28.908Z,61.77
2019-03-09T00:19:01.025Z,58.68
2019-03-09T00:21:32.597Z,56.58
2019-03-09T00:24:06.612Z,61.15
2019-03-09T00:26:39.707Z,56.23
2019-03-09T00:29:12.579Z,56.10
2019-03-09T00:31:44.016Z,52.85
2019-03-09T00:34:15.822Z,60.35
2019-03-09T00:36:47.581Z,57.58
2019-03-09T00:39:19.204Z,57.15
2019-03-09T00:41:52.709Z,57.93
2019-03-09T00:44:24.500Z,59.40
2019-03-09T00:46:56.267Z,66.10
2019-03-09T00:49:28.379Z,68.92
2019-03-09T00:51:59.945Z,64.60
2019-03-09T00:54:31.405Z,66.80
2019-03-09T00:57:04.144Z,65.90
2019-03-09T00:59:35.816Z,73.02
2019-03-09T01:02:07.353Z,70.10
2019-03-09T01:04:39.267Z,88.07
2019-03-09T01:07:10.872Z,92.05
2019-03-09T01:09:42.533Z,85.25
2019-03-09T01:12:14.570Z,70.90
2019-03-09T01:14:46.310Z,82.35
2019-03-09T01:17:18.080Z,71.28
2019-03-09T01:19:50.306Z,71.50
2019-03-09T01:22:22.101Z,75.85
2019-03-09T01:24:53.868Z,69.70
2019-03-09T01:27:26.331Z,67.30
2019-03-09T01:29:58.108Z,63.42
2019-03-09T01:32:29.880Z,66.20
2019-03-09T01:35:02.142Z,65.42
2019-03-09T01:37:38.215Z,66.05
2019-03-09T01:40:13.770Z,62.98
2019-03-09T01:42:48.035Z,61.55
2019-03-09T01:45:20.247Z,57.67
2019-03-09T01:47:51.939Z,51.65
2019-03-09T01:50:23.656Z,46.85
2019-03-09T01:52:55.939Z,55.50
2019-03-09T01:55:27.507Z,54.73
2019-03-09T01:57:59.135Z,63.78
2019-03-09T02:00:30.806Z,69.72
2019-03-09T02:03:02.501Z,52.00
2019-03-09T02:05:34.247Z,56.73
2019-03-09T02:08:08.716Z,58.00
2019-03-09T02:10:40.622Z,58.92
2019-03-09T02:13:12.301Z,47.55
2019-03-09T02:16:04.635Z,56.90
2019-03-09T02:18:36.653Z,50.25
2019-03-09T02:21:08.220Z,51.42
2019-03-09T02:23:39.756Z,46.10
2019-03-09T02:26:11.880Z,41.73
2019-03-09T02:28:43.671Z,38.70
2019-03-09T02:31:15.457Z,38.85
2019-03-09T02:33:47.637Z,43.90
2019-03-09T02:36:19.453Z,36.55
2019-03-09T02:38:52.891Z,37.75
2019-03-09T02:41:24.810Z,34.75
2019-03-09T02:43:58.400Z,37.17
2019-03-09T02:46:30.196Z,31.80
2019-03-09T02:49:05.647Z,41.00
2019-03-09T02:51:37.612Z,33.48
2019-03-09T02:54:09.712Z,37.90
2019-03-09T02:56:41.681Z,34.33
2019-03-09T02:59:13.430Z,26.65
2019-03-09T03:01:46.773Z,29.40
2019-03-09T03:04:18.380Z,33.02
2019-03-09T03:06:50.301Z,28.87
2019-03-09T03:09:22.211Z,33.20
2019-03-09T03:11:54.275Z,29.23
2019-03-09T03:14:26.855Z,28.57
2019-03-09T03:16:58.978Z,27.13
2019-03-09T03:19:31.070Z,31.77
2019-03-09T03:22:02.994Z,27.58
2019-03-09T03:24:35.267Z,24.40
2019-03-09T03:27:08.011Z,30.15
2019-03-09T03:29:39.990Z,29.18
2019-03-09T03:32:11.792Z,26.12
2019-03-09T03:34:44.458Z,26.97
2019-03-09T03:37:16.420Z,27.50
2019-03-09T03:39:49.010Z,25.92
2019-03-09T03:42:21.100Z,33.10
2019-03-09T03:44:53.198Z,35.13
2019-03-09T03:47:25.192Z,27.90
2019-03-09T03:49:57.264Z,35.88
2019-03-09T03:52:29.055Z,29.67
2019-03-09T03:55:12.436Z,27.30
2019-03-09T03:58:03.276Z,25.70
2019-03-09T04:00:38.149Z,27.95
2019-03-09T04:03:09.984Z,27.07
2019-03-09T04:05:45.374Z,27.75
2019-03-09T04:08:18.491Z,25.68
2019-03-09T04:10:52.157Z,28.62
2019-03-09T04:13:24.098Z,27.07
2019-03-09T04:15:55.985Z,26.48
2019-03-09T04:18:28.642Z,26.55
2019-03-09T04:21:01.952Z,27.40
2019-03-09T04:23:33.906Z,23.30
2019-03-09T04:26:05.819Z,22.22
2019-03-09T04:28:37.608Z,25.12
2019-03-09T04:31:10.196Z,21.85
2019-03-09T04:33:42.127Z,23.42
2019-03-09T04:36:13.972Z,25.50
2019-03-09T04:38:45.714Z,27.37
2019-03-09T04:41:20.031Z,26.37
2019-03-09T04:43:52.076Z,31.70
2019-03-09T04:46:28.249Z,25.30
2019-03-09T04:49:00.149Z,29.30
2019-03-09T04:51:32.037Z,23.52
2019-03-09T04:54:03.851Z,28.80
2019-03-09T04:56:35.760Z,27.42
2019-03-09T04:59:08.158Z,28.05
2019-03-09T05:01:40.216Z,27.87
2019-03-09T05:04:15.901Z,24.25
2019-03-09T05:06:48.254Z,22.85
2019-03-09T05:09:24.828Z,24.00
2019-03-09T05:11:56.907Z,22.70
2019-03-09T05:14:29.177Z,21.80
2019-03-09T05:17:01.089Z,19.75
2019-03-09T05:19:33.639Z,19.30
2019-03-09T05:22:05.454Z,20.43
2019-03-09T05:24:37.344Z,26.15
2019-03-09T05:27:12.896Z,21.40
2019-03-09T05:29:44.756Z,21.15
2019-03-09T05:32:17.405Z,22.42
2019-03-09T05:34:49.032Z,21.25
2019-03-09T05:37:20.520Z,20.05
2019-03-09T05:39:52.581Z,18.17
2019-03-09T05:42:24.393Z,31.25
2019-03-09T05:44:56.274Z,20.95
2019-03-09T05:47:29.361Z,22.90
2019-03-09T05:50:01.276Z,25.97
2019-03-09T05:52:32.964Z,26.87
2019-03-09T05:55:06.361Z,21.33
2019-03-09T05:57:39.489Z,18.50
2019-03-09T06:00:15.851Z,26.23
2019-03-09T06:02:47.489Z,24.43
2019-03-09T06:05:23.447Z,31.90
2019-03-09T06:07:55.099Z,26.70
2019-03-09T06:10:26.813Z,25.68
2019-03-09T06:12:59.250Z,19.07
2019-03-09T06:15:31.036Z,25.20
2019-03-09T06:18:02.926Z,18.07
2019-03-09T06:20:35.071Z,25.55
2019-03-09T06:23:06.940Z,23.75
2019-03-09T06:25:40.953Z,28.17
2019-03-09T06:28:12.213Z,24.75
2019-03-09T06:30:44.138Z,24.23
2019-03-09T06:33:19.725Z,23.70
2019-03-09T06:35:58.429Z,23.85
2019-03-09T06:38:34.321Z,28.57
2019-03-09T06:41:07.518Z,23.47
2019-03-09T06:43:39.329Z,18.52
2019-03-09T06:46:11.168Z,21.87
2019-03-09T06:48:44.359Z,19.80
2019-03-09T06:51:16.001Z,27.52
2019-03-09T06:53:47.700Z,18.02
2019-03-09T06:56:19.627Z,20.00
2019-03-09T06:58:51.283Z,24.47
2019-03-09T07:01:26.301Z,23.98
2019-03-09T07:03:58.056Z,24.63
2019-03-09T07:06:29.852Z,33.25
2019-03-09T07:09:01.814Z,33.78
2019-03-09T07:11:33.754Z,25.27
2019-03-09T07:14:10.220Z,23.47
2019-03-09T07:16:42.182Z,19.77
2019-03-09T07:19:13.633Z,19.42
2019-03-09T07:21:45.573Z,17.00
2019-03-09T07:24:17.572Z,18.60
2019-03-09T07:26:50.939Z,20.40
2019-03-09T07:29:25.641Z,22.32
2019-03-09T07:31:57.381Z,22.93
2019-03-09T07:34:49.641Z,22.85
2019-03-09T07:37:21.763Z,25.82
2019-03-09T07:39:53.697Z,25.48
2019-03-09T07:42:25.811Z,23.30
2019-03-09T07:44:57.638Z,16.50
2019-03-09T07:47:29.365Z,15.80
2019-03-09T07:50:02.650Z,15.75
2019-03-09T07:52:37.399Z,20.35
2019-03-09T07:55:13.600Z,22.37
2019-03-09T07:57:45.757Z,21.02
2019-03-09T08:00:21.090Z,17.57
2019-03-09T08:02:53.071Z,24.18
2019-03-09T08:05:25.201Z,23.10
2019-03-09T08:07:57.112Z,20.77
2019-03-09T08:10:31.015Z,32.65
2019-03-09T08:13:06.217Z,26.93
2019-03-09T08:15:38.095Z,21.37
2019-03-09T08:18:13.393Z,23.83
2019-03-09T08:20:45.657Z,24.87
2019-03-09T08:23:17.488Z,22.05
2019-03-09T08:25:51.963Z,22.10
2019-03-09T08:28:25.100Z,24.75
2019-03-09T08:30:57.706Z,24.30
2019-03-09T08:33:30.946Z,23.92
2019-03-09T08:36:03.426Z,17.60
2019-03-09T08:38:36.101Z,18.50
2019-03-09T08:41:08.088Z,22.77
2019-03-09T08:43:40.091Z,20.27
2019-03-09T08:46:12.038Z,25.88
2019-03-09T08:48:44.709Z,21.93
2019-03-09T08:51:18.672Z,26.45
2019-03-09T08:53:55.870Z,23.32
2019-03-09T08:56:27.870Z,19.70
2019-03-09T08:58:59.840Z,31.05
2019-03-09T09:01:32.227Z,21.87
2019-03-09T09:04:04.089Z,25.52
2019-03-09T09:06:35.877Z,21.55
2019-03-09T09:09:08.615Z,24.63
2019-03-09T09:11:40.369Z,22.37
2019-03-09T09:14:12.159Z,28.77
2019-03-09T09:16:44.331Z,23.80
2019-03-09T09:19:17.532Z,23.90
2019-03-09T09:21:49.585Z,24.82
2019-03-09T09:24:21.431Z,21.90
2019-03-09T09:26:53.235Z,18.90
2019-03-09T09:29:26.713Z,22.35
2019-03-09T09:31:58.780Z,21.57
2019-03-09T09:34:30.589Z,24.25
2019-03-09T09:37:07.012Z,25.80
2019-03-09T09:39:44.210Z,23.92
2019-03-09T09:42:17.469Z,24.10
2019-03-09T09:44:49.117Z,24.37
2019-03-09T09:47:24.095Z,21.73
2019-03-09T09:49:56.093Z,20.72
2019-03-09T09:52:29.585Z,21.80
2019-03-09T09:55:03.460Z,24.20
2019-03-09T09:57:37.151Z,19.80
2019-03-09T10:00:12.540Z,19.82
2019-03-09T10:02:45.374Z,29.80
2019-03-09T10:05:17.113Z,26.12
2019-03-09T10:07:49.121Z,26.73
2019-03-09T10:10:23.474Z,26.80
2019-03-09T10:12:56.331Z,27.60
2019-03-09T10:15:33.676Z,27.42
2019-03-09T10:18:05.531Z,56.83
2019-03-09T10:20:37.375Z,35.73
2019-03-09T10:23:10.092Z,29.80
2019-03-09T10:25:41.737Z,19.80
2019-03-09T10:28:13.291Z,27.70
2019-03-09T10:30:45.235Z,25.57
2019-03-09T10:33:17.113Z,25.80
2019-03-09T10:35:51.620Z,23.35
2019-03-09T10:38:24.555Z,25.92
2019-03-09T10:40:57.235Z,32.75
2019-03-09T10:43:48.355Z,27.62
2019-03-09T10:46:20.702Z,31.80
2019-03-09T10:48:52.397Z,25.97
2019-03-09T10:51:24.230Z,23.87
2019-03-09T10:53:57.031Z,31.82
2019-03-09T10:56:28.836Z,26.30
2019-03-09T10:59:00.507Z,25.88
2019-03-09T11:01:32.673Z,23.32
2019-03-09T11:04:04.987Z,25.92
2019-03-09T11:06:36.660Z,36.05
2019-03-09T11:09:09.476Z,25.15
2019-03-09T11:11:41.463Z,28.10
2019-03-09T11:14:13.483Z,21.60
2019-03-09T11:16:52.552Z,23.67
2019-03-09T11:19:24.531Z,25.75
2019-03-09T11:22:05.580Z,22.58
2019-03-09T11:24:37.327Z,26.20
2019-03-09T11:27:28.560Z,21.52
2019-03-09T11:30:00.974Z,25.90
2019-03-09T11:32:32.743Z,28.62
2019-03-09T11:35:04.787Z,28.40
2019-03-09T11:37:37.479Z,34.45
2019-03-09T11:40:19.304Z,26.75
2019-03-09T11:42:50.982Z,31.82
2019-03-09T11:45:23.192Z,28.20
2019-03-09T11:47:54.730Z,29.42
2019-03-09T11:50:26.516Z,27.87
2019-03-09T11:52:58.556Z,30.15
2019-03-09T11:55:31.400Z,24.85
2019-03-09T11:58:03.641Z,24.90
2019-03-09T12:00:36.809Z,23.65
2019-03-09T12:03:27.955Z,27.13
2019-03-09T12:06:01.348Z,27.85
2019-03-09T12:08:33.415Z,28.60
2019-03-09T12:11:05.381Z,32.03
2019-03-09T12:13:37.138Z,25.40
2019-03-09T12:16:10.756Z,24.90
2019-03-09T12:18:56.704Z,24.70
2019-03-09T12:21:28.830Z,28.62
2019-03-09T12:24:00.573Z,28.77
2019-03-09T12:26:32.672Z,28.25
2019-03-09T12:29:04.290Z,28.62
2019-03-09T12:31:55.424Z,25.02
2019-03-09T12:34:27.107Z,28.15
2019-03-09T12:36:58.935Z,27.32
2019-03-09T12:39:30.841Z,27.20
2019-03-09T12:42:02.455Z,32.17
2019-03-09T12:44:34.298Z,27.42
2019-03-09T12:47:06.258Z,26.10
2019-03-09T12:49:38.251Z,31.87
2019-03-09T12:52:10.254Z,32.20
2019-03-09T12:54:41.816Z,28.73
2019-03-09T12:57:14.323Z,33.30
2019-03-09T12:59:46.715Z,25.65
2019-03-09T13:02:18.634Z,30.90
2019-03-09T13:04:50.238Z,27.93
2019-03-09T13:07:22.150Z,28.85
2019-03-09T13:09:56.700Z,26.77
2019-03-09T13:12:29.131Z,41.73
2019-03-09T13:15:04.790Z,33.90
2019-03-09T13:17:34.110Z,29.57
2019-03-09T13:20:07.169Z,35.43
2019-03-09T13:22:39.148Z,32.95
2019-03-09T13:25:13.921Z,27.67
2019-03-09T13:27:45.767Z,33.18
2019-03-09T13:30:20.753Z,40.90
2019-03-09T13:32:58.953Z,34.03
2019-03-09T13:35:29.948Z,33.67
2019-03-09T13:38:05.939Z,31.45
2019-03-09T13:40:40.717Z,35.75
2019-03-09T13:43:19.962Z,31.25
2019-03-09T13:46:00.575Z,33.10
2019-03-09T13:48:32.287Z,31.45
2019-03-09T13:51:10.850Z,31.20
2019-03-09T13:53:44.078Z,30.92
2019-03-09T13:56:15.891Z,29.52
2019-03-09T13:58:54.261Z,33.10
2019-03-09T14:01:26.092Z,26.90
2019-03-09T14:03:57.897Z,33.18
2019-03-09T14:06:30.044Z,32.05
2019-03-09T14:09:01.771Z,35.80
2019-03-09T14:11:33.278Z,27.65
2019-03-09T14:14:05.286Z,32.30
2019-03-09T14:16:36.956Z,32.40
2019-03-09T14:19:08.701Z,30.15
2019-03-09T14:22:00.324Z,35.52
2019-03-09T14:24:32.660Z,36.48
2019-03-09T14:27:04.988Z,42.03
2019-03-09T14:29:37.039Z,35.73
2019-03-09T14:32:09.085Z,41.92
2019-03-09T14:34:40.995Z,38.15
2019-03-09T14:37:32.707Z,44.50
2019-03-09T14:40:05.121Z,40.17
2019-03-09T14:42:44.099Z,40.88
2019-03-09T14:45:19.757Z,38.17
2019-03-09T14:47:51.698Z,39.30
2019-03-09T14:50:23.494Z,44.70
2019-03-09T14:52:55.213Z,43.78
2019-03-09T14:55:26.982Z,41.88
2019-03-09T14:58:08.082Z,35.65
2019-03-09T15:00:40.319Z,39.18
2019-03-09T15:03:12.015Z,37.65
2019-03-09T15:05:44.235Z,36.53
2019-03-09T15:08:16.139Z,35.90
2019-03-09T15:10:47.986Z,36.73
2019-03-09T15:13:19.839Z,32.83
2019-03-09T15:15:51.339Z,29.77
2019-03-09T15:18:23.130Z,34.58
2019-03-09T15:21:13.825Z,38.98
2019-03-09T15:23:46.028Z,34.10
2019-03-09T15:26:17.788Z,33.40
2019-03-09T15:28:49.713Z,31.07
2019-03-09T15:31:30.528Z,32.78
2019-03-09T15:34:02.603Z,33.58
2019-03-09T15:36:34.511Z,33.35
2019-03-09T15:39:07.729Z,35.75
2019-03-09T15:41:39.305Z,32.15
2019-03-09T15:44:11.122Z,34.92
2019-03-09T15:46:45.893Z,32.40
2019-03-09T15:49:17.633Z,34.90
2019-03-09T15:51:53.773Z,33.70
2019-03-09T15:54:25.494Z,34.27
2019-03-09T15:56:57.390Z,33.53
2019-03-09T15:59:34.641Z,33.30
2019-03-09T16:02:09.989Z,31.57
2019-03-09T16:04:41.582Z,36.15
2019-03-09T16:07:13.630Z,35.98
2019-03-09T16:09:45.901Z,41.75
2019-03-09T16:12:20.646Z,33.73
2019-03-09T16:14:52.725Z,39.40
2019-03-09T16:17:29.987Z,41.37
2019-03-09T16:20:03.459Z,34.90
2019-03-09T16:22:38.366Z,38.98
2019-03-09T16:25:11.059Z,39.15
2019-03-09T16:27:42.810Z,36.90
2019-03-09T16:30:18.974Z,39.42
2019-03-09T16:32:50.846Z,32.42
2019-03-09T16:35:31.959Z,40.63
2019-03-09T16:38:03.807Z,37.95
2019-03-09T16:40:40.700Z,37.40
2019-03-09T16:43:15.308Z,37.55
2019-03-09T16:45:47.273Z,41.18
2019-03-09T16:48:18.889Z,38.80
2019-03-09T16:50:50.622Z,44.55
2019-03-09T16:53:22.740Z,40.58
2019-03-09T16:55:54.570Z,44.27
2019-03-09T16:58:29.363Z,41.42
2019-03-09T17:00:59.991Z,42.85
2019-03-09T17:03:32.776Z,45.48
2019-03-09T17:06:04.520Z,44.93
2019-03-09T17:08:37.017Z,46.55
2019-03-09T17:11:09.007Z,49.70
2019-03-09T17:13:40.921Z,45.15
2019-03-09T17:16:17.823Z,39.75
2019-03-09T17:18:51.760Z,41.35
2019-03-09T17:21:24.062Z,42.43
2019-03-09T17:23:56.068Z,44.45
2019-03-09T17:26:27.927Z,39.33
2019-03-09T17:29:00.024Z,37.80
2019-03-09T17:31:31.781Z,39.48
2019-03-09T17:34:04.659Z,39.65
2019-03-09T17:36:36.639Z,39.63
2019-03-09T17:39:08.706Z,40.95
2019-03-09T17:41:40.671Z,41.15
2019-03-09T17:44:12.920Z,42.67
2019-03-09T17:46:44.718Z,43.45
2019-03-09T17:49:16.282Z,40.63
2019-03-09T17:51:48.756Z,44.42
2019-03-09T17:54:20.629Z,48.98
2019-03-09T17:56:52.406Z,40.58
2019-03-09T17:59:25.132Z,42.33
2019-03-09T18:01:57.395Z,45.23
2019-03-09T18:04:30.672Z,39.30
2019-03-09T18:07:02.464Z,40.23
2019-03-09T18:09:34.516Z,40.48
2019-03-09T18:12:06.869Z,42.05
2019-03-09T18:14:38.603Z,38.42
2019-03-09T18:17:10.423Z,42.23
2019-03-09T18:19:42.627Z,37.28
2019-03-09T18:22:14.421Z,31.87
2019-03-09T18:24:46.586Z,41.77
2019-03-09T18:27:18.854Z,37.23
2019-03-09T18:29:50.611Z,36.05
2019-03-09T18:32:22.090Z,33.02
2019-03-09T18:34:54.670Z,32.80
2019-03-09T18:37:26.536Z,30.65
2019-03-09T18:39:58.810Z,29.50
2019-03-09T18:42:31.184Z,32.98
2019-03-09T18:45:03.061Z,34.92
2019-03-09T18:47:34.986Z,32.50
2019-03-09T18:50:09.617Z,30.92
2019-03-09T18:52:41.460Z,33.08
2019-03-09T18:55:13.345Z,31.60
2019-03-09T18:57:45.188Z,29.12
2019-03-09T19:00:20.885Z,28.27
2019-03-09T19:02:52.995Z,27.67
2019-03-09T19:05:26.341Z,27.73
2019-03-09T19:07:58.230Z,31.25
2019-03-09T19:10:30.331Z,29.72
2019-03-09T19:13:02.206Z,40.28
2019-03-09T19:15:33.726Z,32.67
2019-03-09T19:18:05.756Z,35.90
2019-03-09T19:20:37.573Z,37.42
2019-03-09T19:23:09.677Z,33.55
2019-03-09T19:25:41.969Z,34.98
2019-03-09T19:28:14.025Z,34.78
2019-03-09T19:30:46.610Z,39.18
2019-03-09T19:33:18.398Z,33.53
2019-03-09T19:35:50.201Z,39.13
2019-03-09T19:38:22.287Z,38.02
2019-03-09T19:40:54.540Z,38.95
2019-03-09T19:43:26.441Z,37.95
2019-03-09T19:45:58.339Z,45.90
2019-03-09T19:48:30.490Z,48.98
2019-03-09T19:51:02.084Z,46.25
2019-03-09T19:53:34.524Z,43.20
2019-03-09T19:56:06.188Z,41.75
2019-03-09T19:58:37.602Z,40.35
2019-03-09T20:01:09.699Z,37.53
2019-03-09T20:03:41.499Z,39.70
2019-03-09T20:06:14.860Z,38.67
2019-03-09T20:08:47.638Z,41.73
2019-03-09T20:11:20.179Z,40.17
2019-03-09T20:13:51.931Z,38.17
2019-03-09T20:16:23.695Z,44.63
2019-03-09T20:18:55.920Z,47.33
2019-03-09T20:21:27.808Z,39.90
2019-03-09T20:23:59.488Z,41.23
2019-03-09T20:26:31.894Z,42.00
2019-03-09T20:29:03.971Z,42.40
2019-03-09T20:31:35.853Z,43.25
2019-03-09T20:34:07.948Z,40.50
2019-03-09T20:36:41.398Z,41.98
2019-03-09T20:39:13.459Z,43.80
2019-03-09T20:41:45.129Z,39.95
2019-03-09T20:44:16.844Z,39.48
2019-03-09T20:46:48.938Z,42.75
2019-03-09T20:49:20.833Z,38.90
2019-03-09T20:51:52.607Z,48.55
2019-03-09T20:54:24.887Z,41.30
2019-03-09T20:56:56.832Z,39.80
2019-03-09T20:59:28.756Z,37.93
2019-03-09T21:02:00.953Z,41.83
2019-03-09T21:04:33.366Z,44.08
2019-03-09T21:07:05.136Z,42.70
2019-03-09T21:09:38.627Z,48.90
2019-03-09T21:12:10.479Z,42.33
2019-03-09T21:14:42.256Z,38.35
2019-03-09T21:17:17.405Z,38.65
2019-03-09T21:20:10.011Z,39.15
2019-03-09T21:22:42.534Z,39.80
2019-03-09T21:25:14.453Z,39.45
2019-03-09T21:27:46.388Z,43.92
2019-03-09T21:30:18.787Z,37.93
2019-03-09T21:32:50.456Z,41.20
2019-03-09T21:35:22.233Z,45.28
2019-03-09T21:37:54.441Z,37.88
2019-03-09T21:40:26.232Z,38.70
2019-03-09T21:42:58.002Z,48.55
2019-03-09T21:45:30.470Z,43.05
2019-03-09T21:48:02.354Z,41.75
2019-03-09T21:50:34.117Z,38.53
2019-03-09T21:53:06.251Z,44.15
2019-03-09T21:55:37.896Z,39.88
2019-03-09T21:58:09.772Z,39.95
2019-03-09T22:00:42.330Z,42.95
2019-03-09T22:03:14.078Z,43.40
2019-03-09T22:05:46.633Z,40.10
2019-03-09T22:08:19.670Z,39.53
2019-03-09T22:10:53.943Z,38.15
2019-03-09T22:13:25.935Z,41.80
2019-03-09T22:15:58.722Z,37.10
2019-03-09T22:18:30.495Z,44.08
2019-03-09T22:21:02.869Z,49.90
2019-03-09T22:23:43.691Z,44.13
2019-03-09T22:26:07.958Z,42.13
2019-03-09T22:28:39.968Z,39.33
2019-03-09T22:31:12.597Z,38.75
2019-03-09T22:33:44.353Z,40.12
2019-03-09T22:36:16.254Z,41.50
2019-03-09T22:38:49.368Z,41.68
2019-03-09T22:41:21.262Z,47.25
2019-03-09T22:43:53.459Z,49.73
2019-03-09T22:46:24.936Z,45.63
2019-03-09T22:48:56.728Z,46.65
2019-03-09T22:51:28.691Z,43.42
2019-03-09T22:54:00.590Z,39.78
2019-03-09T22:56:32.341Z,48.42
2019-03-09T22:59:04.023Z,46.48
2019-03-09T23:01:36.085Z,44.73
2019-03-09T23:04:08.375Z,45.88
2019-03-09T23:06:40.470Z,47.03
2019-03-09T23:09:12.414Z,49.10
2019-03-09T23:11:45.760Z,46.58
2019-03-09T23:14:17.615Z,42.38
2019-03-09T23:16:49.734Z,43.30
2019-03-09T23:19:21.909Z,50.67
2019-03-09T23:21:53.841Z,52.58
2019-03-09T23:24:38.911Z,51.48
2019-03-09T23:27:10.733Z,51.25
2019-03-09T23:29:42.715Z,49.20
2019-03-09T23:32:14.590Z,83.03
2019-03-09T23:34:46.794Z,95.35
2019-03-09T23:37:18.615Z,62.85
2019-03-09T23:39:50.360Z,55.30
2019-03-09T23:42:22.483Z,62.30
2019-03-09T23:44:54.420Z,50.00
2019-03-09T23:47:26.279Z,52.13
2019-03-09T23:49:58.132Z,46.02
2019-03-09T23:52:30.380Z,57.10
2019-03-09T23:55:02.520Z,47.13
2019-03-09T23:57:34.257Z,56.02
